Time;durP1;ratioP1;P1;durP2;ratioP2;P2;SDS_P1;SDS_P2;PMS_P1;PMS_P2;Temp;Humidity;BMP_temperature;BMP_pressure;BME280_temperature;BME280_humidity;BME280_pressure;Samples;Min_cycle;Max_cycle;Signal;HPM_P1;HPM_P2
2023/06/05 16:22:19;;;;;;;;;6.75;5.75;;;;;;;;5117773;27;45368;-87
2023/06/05 16:24:44;;;;;;;;;5.25;5.25;;;;;;;;5114228;27;45714;-76
2023/06/05 16:27:10;;;;;;;;;6.00;5.00;;;;;;;;5116450;27;45206;-75
2023/06/05 16:29:36;;;;;;;;;6.25;6.00;;;;;;;;5114250;27;45296;-75
2023/06/05 16:32:01;;;;;;;;;6.75;6.00;;;;;;;;5114619;27;46170;-74
2023/06/05 16:34:26;;;;;;;;;7.00;6.33;;;;;;;;5115887;27;45346;-72
2023/06/05 16:36:51;;;;;;;;;4.00;4.00;;;;;;;;5112940;27;45605;-74
2023/06/05 16:39:17;;;;;;;;;7.25;6.25;;;;;;;;5112094;27;45505;-76
2023/06/05 16:41:42;;;;;;;;;8.75;5.75;;;;;;;;5115871;27;46319;-76
2023/06/05 16:44:10;;;;;;;;;5.00;5.00;;;;;;;;5116179;27;45482;-76
2023/06/05 16:46:36;;;;;;;;;6.50;6.50;;;;;;;;5114448;27;45454;-76
2023/06/05 16:49:01;;;;;;;;;5.25;5.25;;;;;;;;5116299;27;45465;-77
2023/06/05 16:51:26;;;;;;;;;3.25;3.25;;;;;;;;5115324;27;47428;-76
2023/06/05 16:53:51;;;;;;;;;7.50;6.50;;;;;;;;5115890;27;45250;-77
2023/06/05 16:56:17;;;;;;;;;7.75;7.25;;;;;;;;5116982;27;45338;-76
2023/06/05 16:58:42;;;;;;;;;7.00;7.00;;;;;;;;5116578;27;45261;-76
2023/06/05 17:01:08;;;;;;;;;5.75;5.75;;;;;;;;5113232;27;46945;-76
2023/06/05 17:03:34;;;;;;;;;6.75;6.75;;;;;;;;5116543;27;45388;-77
2023/06/05 17:05:59;;;;;;;;;5.00;5.00;;;;;;;;5115802;27;45490;-77
2023/06/05 17:08:24;;;;;;;;;7.00;5.75;;;;;;;;5112581;27;45431;-75
2023/06/05 17:10:53;;;;;;;;;6.75;6.00;;;;;;;;5117704;27;47971;-77
2023/06/05 17:13:18;;;;;;;;;7.00;6.50;;;;;;;;5106059;27;45247;-78
2023/06/05 17:15:46;;;;;;;;;6.50;6.50;;;;;;;;5112425;27;45395;-77
2023/06/05 17:18:11;;;;;;;;;7.75;7.00;;;;;;;;5110483;27;45479;-77
2023/06/05 17:20:42;;;;;;;;;6.50;6.50;;;;;;;;5115642;27;45445;-81
2023/06/05 17:23:08;;;;;;;;;6.50;5.75;;;;;;;;5116246;27;45351;-81
2023/06/05 17:25:33;;;;;;;;;8.50;7.75;;;;;;;;5109286;27;45445;-80
2023/06/05 17:27:58;;;;;;;;;7.67;6.67;;;;;;;;5104251;27;45817;-79
2023/06/05 17:30:24;;;;;;;;;8.00;8.00;;;;;;;;5111425;27;46393;-77
2023/06/05 17:32:49;;;;;;;;;6.00;6.00;;;;;;;;5106484;27;45751;-77
2023/06/05 17:35:14;;;;;;;;;7.25;7.00;;;;;;;;5088963;27;45303;-81
2023/06/05 17:37:40;;;;;;;;;5.75;5.00;;;;;;;;5105063;27;45486;-82
2023/06/05 17:40:05;;;;;;;;;6.33;6.00;;;;;;;;5106011;27;48253;-80
2023/06/05 17:42:31;;;;;;;;;10.00;9.50;;;;;;;;5100276;27;45408;-82
2023/06/05 17:44:56;;;;;;;;;7.00;6.75;;;;;;;;5099535;27;45349;-82
2023/06/05 17:47:21;;;;;;;;;6.33;6.00;;;;;;;;5100547;27;45336;-88
2023/06/05 17:49:46;;;;;;;;;6.67;6.33;;;;;;;;5095559;27;47057;-75
2023/06/05 17:52:11;;;;;;;;;11.67;10.00;;;;;;;;5098082;27;45273;-81
2023/06/05 17:54:37;;;;;;;;;4.67;4.67;;;;;;;;5089431;27;45443;-84
2023/06/05 17:57:03;;;;;;;;;6.75;6.75;;;;;;;;5099803;27;46217;-76
2023/06/05 17:59:28;;;;;;;;;6.00;5.00;;;;;;;;5097856;27;46004;-77
2023/06/05 18:01:54;;;;;;;;;10.00;7.00;;;;;;;;5099593;27;45443;-76
2023/06/05 18:04:19;;;;;;;;;6.50;6.50;;;;;;;;5100961;27;45247;-73
2023/06/05 18:06:45;;;;;;;;;6.00;4.50;;;;;;;;5099797;27;45488;-87
2023/06/05 18:09:10;;;;;;;;;6.00;5.00;;;;;;;;5100124;27;47143;-83
2023/06/05 18:11:36;;;;;;;;;5.50;4.75;;;;;;;;5101321;27;45315;-84
2023/06/05 18:14:01;;;;;;;;;7.25;5.50;;;;;;;;5101823;27;45342;-75
2023/06/05 18:16:26;;;;;;;;;5.67;5.00;;;;;;;;5098376;27;45851;-72
2023/06/05 18:18:52;;;;;;;;;4.25;3.25;;;;;;;;5101158;27;45611;-76
2023/06/05 18:21:17;;;;;;;;;5.50;5.00;;;;;;;;5094977;27;47347;-80
2023/06/05 18:23:42;;;;;;;;;6.00;5.50;;;;;;;;5099599;27;45487;-79
2023/06/05 18:26:12;;;;;;;;;4.33;4.33;;;;;;;;5101684;27;45448;-84
2023/06/05 18:28:38;;;;;;;;;7.25;6.25;;;;;;;;5095459;27;46503;-79
2023/06/05 18:31:04;;;;;;;;;3.75;3.00;;;;;;;;5099352;27;45632;-83
2023/06/05 18:33:30;;;;;;;;;7.00;6.00;;;;;;;;5097920;27;45177;-77
2023/06/05 18:35:56;;;;;;;;;7.50;6.50;;;;;;;;5100338;27;45371;-82
2023/06/05 18:38:21;;;;;;;;;5.25;5.25;;;;;;;;5097153;27;45554;-78
2023/06/05 18:40:46;;;;;;;;;6.00;6.00;;;;;;;;5094202;27;45516;-80
2023/06/05 18:43:12;;;;;;;;;6.00;5.00;;;;;;;;5093226;27;45366;-74
2023/06/05 18:45:37;;;;;;;;;6.25;6.25;;;;;;;;5092573;27;46761;-74
2023/06/05 18:48:03;;;;;;;;;6.00;5.25;;;;;;;;5096011;27;46892;-75
2023/06/05 18:50:28;;;;;;;;;5.75;4.75;;;;;;;;5086364;27;45886;-74
2023/06/05 18:52:53;;;;;;;;;6.00;6.00;;;;;;;;5098664;27;45490;-74
2023/06/05 18:55:19;;;;;;;;;7.00;6.00;;;;;;;;5100634;27;45306;-74
2023/06/05 18:57:44;;;;;;;;;5.75;5.25;;;;;;;;5098979;27;48081;-74
2023/06/05 19:00:10;;;;;;;;;5.00;5.00;;;;;;;;5097654;27;45456;-74
2023/06/05 19:02:35;;;;;;;;;7.25;6.25;;;;;;;;5091864;27;46989;-74
2023/06/05 19:05:01;;;;;;;;;6.00;5.25;;;;;;;;5090691;27;45443;-74
2023/06/05 19:07:26;;;;;;;;;7.00;6.25;;;;;;;;5094975;27;48530;-74
2023/06/05 19:09:51;;;;;;;;;4.00;4.00;;;;;;;;5096674;27;45491;-74
2023/06/05 19:12:16;;;;;;;;;7.00;6.75;;;;;;;;5099239;27;45333;-76
2023/06/05 19:14:42;;;;;;;;;5.00;5.00;;;;;;;;5098971;27;45573;-77
2023/06/05 19:17:07;;;;;;;;;6.75;6.75;;;;;;;;5088960;27;47358;-79
2023/06/05 19:19:32;;;;;;;;;7.00;6.00;;;;;;;;5095603;27;46582;-74
2023/06/05 19:21:57;;;;;;;;;7.50;7.00;;;;;;;;5092840;27;45483;-74
2023/06/05 19:24:23;;;;;;;;;8.33;7.67;;;;;;;;5094296;27;45557;-75
2023/06/05 19:26:48;;;;;;;;;7.25;7.25;;;;;;;;5095594;27;47413;-74
2023/06/05 19:29:13;;;;;;;;;6.67;5.67;;;;;;;;5095585;27;45342;-75
2023/06/05 19:31:38;;;;;;;;;6.67;6.33;;;;;;;;5098276;27;45329;-75
2023/06/05 19:34:04;;;;;;;;;8.00;7.00;;;;;;;;5096683;27;45978;-74
2023/06/05 19:36:30;;;;;;;;;6.00;6.00;;;;;;;;5097609;27;47083;-74
2023/06/05 19:38:55;;;;;;;;;7.00;6.25;;;;;;;;5096932;27;45419;-74
2023/06/05 19:41:20;;;;;;;;;8.00;7.00;;;;;;;;5099769;27;45301;-77
2023/06/05 19:43:46;;;;;;;;;7.33;5.67;;;;;;;;5099465;27;45267;-73
2023/06/05 19:46:12;;;;;;;;;7.50;7.25;;;;;;;;5098948;27;45581;-73
2023/06/05 19:48:37;;;;;;;;;7.67;7.67;;;;;;;;5092587;27;45464;-76
2023/06/05 19:51:02;;;;;;;;;7.00;7.00;;;;;;;;5089457;27;45503;-72
2023/06/05 19:53:27;;;;;;;;;6.00;5.50;;;;;;;;5088116;27;45581;-72
2023/06/05 19:55:53;;;;;;;;;6.33;6.00;;;;;;;;5097414;27;45529;-71
2023/06/05 19:58:18;;;;;;;;;7.00;7.00;;;;;;;;5100212;27;45505;-72
2023/06/05 20:00:43;;;;;;;;;8.00;8.00;;;;;;;;5096927;27;45471;-72
2023/06/05 20:03:08;;;;;;;;;8.33;8.00;;;;;;;;5099417;27;45360;-71
2023/06/05 20:05:33;;;;;;;;;6.33;6.00;;;;;;;;5099493;27;45619;-73
2023/06/05 20:07:59;;;;;;;;;7.33;6.00;;;;;;;;5097797;27;45543;-72
2023/06/05 20:10:24;;;;;;;;;8.25;5.75;;;;;;;;5099968;27;45342;-73
2023/06/05 20:12:49;;;;;;;;;6.00;5.50;;;;;;;;5099225;27;45387;-72
2023/06/05 20:15:15;;;;;;;;;8.00;7.00;;;;;;;;5100006;27;45328;-72
2023/06/05 20:17:40;;;;;;;;;5.25;5.00;;;;;;;;5097700;27;45881;-73
2023/06/05 20:20:06;;;;;;;;;7.75;7.75;;;;;;;;5099265;27;45433;-72
2023/06/05 20:22:31;;;;;;;;;8.50;8.00;;;;;;;;5096127;27;45518;-72
2023/06/05 20:24:57;;;;;;;;;14.50;11.75;;;;;;;;5098337;27;48258;-72
2023/06/05 20:27:22;;;;;;;;;9.75;8.25;;;;;;;;5098717;27;45476;-72
2023/06/05 20:29:47;;;;;;;;;6.67;6.00;;;;;;;;5097324;27;47296;-73
2023/06/05 20:32:13;;;;;;;;;10.00;9.67;;;;;;;;5099917;27;45496;-73
2023/06/05 20:34:38;;;;;;;;;9.33;8.00;;;;;;;;5094866;27;45300;-73
2023/06/05 20:37:04;;;;;;;;;9.00;6.33;;;;;;;;5085668;27;45449;-73
2023/06/05 20:39:30;;;;;;;;;8.25;8.25;;;;;;;;5099210;27;46518;-72
2023/06/05 20:41:57;;;;;;;;;5.25;5.25;;;;;;;;5097963;27;45987;-72
2023/06/05 20:44:23;;;;;;;;;10.50;7.25;;;;;;;;5098435;27;45685;-73
2023/06/05 20:46:52;;;;;;;;;5.00;4.75;;;;;;;;5097612;27;45421;-72
2023/06/05 20:49:18;;;;;;;;;13.75;11.00;;;;;;;;5097800;27;45279;-73
2023/06/05 20:51:43;;;;;;;;;14.00;12.25;;;;;;;;5098189;27;45411;-73
2023/06/05 20:54:12;;;;;;;;;12.25;10.25;;;;;;;;5097648;27;48128;-73
2023/06/05 20:56:37;;;;;;;;;9.75;8.75;;;;;;;;5099856;27;45468;-73
2023/06/05 20:59:02;;;;;;;;;10.33;9.00;;;;;;;;5098755;27;45511;-72
2023/06/05 21:01:29;;;;;;;;;10.50;9.00;;;;;;;;5097579;27;45994;-73
2023/06/05 21:03:54;;;;;;;;;11.50;9.75;;;;;;;;5099564;27;45782;-73
2023/06/05 21:06:20;;;;;;;;;11.75;9.25;;;;;;;;5097077;27;45566;-73
2023/06/05 21:08:45;;;;;;;;;9.50;9.00;;;;;;;;5099306;27;45327;-73
2023/06/05 21:11:11;;;;;;;;;11.25;10.00;;;;;;;;5102618;27;45372;-73
2023/06/05 21:13:36;;;;;;;;;11.33;8.00;;;;;;;;5102978;27;45478;-72
2023/06/05 21:16:01;;;;;;;;;10.00;8.00;;;;;;;;5100697;27;45362;-73
2023/06/05 21:18:26;;;;;;;;;11.00;8.67;;;;;;;;5093110;27;45372;-72
2023/06/05 21:20:51;;;;;;;;;12.75;9.75;;;;;;;;5098832;27;45555;-72
2023/06/05 21:23:17;;;;;;;;;13.00;11.33;;;;;;;;5092897;27;45358;-72
2023/06/05 21:25:42;;;;;;;;;9.67;9.33;;;;;;;;5101107;27;45295;-72
2023/06/05 21:28:07;;;;;;;;;10.67;9.67;;;;;;;;5098848;27;45238;-73
2023/06/05 21:30:32;;;;;;;;;10.75;9.75;;;;;;;;5100065;27;46753;-72
2023/06/05 21:32:58;;;;;;;;;11.33;11.33;;;;;;;;5101754;27;45636;-72
2023/06/05 21:35:23;;;;;;;;;13.67;10.33;;;;;;;;5095159;27;45426;-73
2023/06/05 21:37:49;;;;;;;;;14.33;12.67;;;;;;;;5097681;27;45432;-73
2023/06/05 21:40:17;;;;;;;;;10.50;9.50;;;;;;;;5098670;27;45424;-73
2023/06/05 21:42:43;;;;;;;;;12.25;8.00;;;;;;;;5102567;27;45251;-72
2023/06/05 21:45:08;;;;;;;;;13.00;11.25;;;;;;;;5102705;27;45350;-72
2023/06/05 21:47:33;;;;;;;;;11.50;10.00;;;;;;;;5101259;27;45405;-72
2023/06/05 21:49:59;;;;;;;;;10.33;10.00;;;;;;;;5100540;27;45554;-72
2023/06/05 21:52:24;;;;;;;;;13.00;11.75;;;;;;;;5100982;27;46322;-72
2023/06/05 21:54:49;;;;;;;;;13.25;12.00;;;;;;;;5101900;27;45700;-72
2023/06/05 21:57:15;;;;;;;;;11.50;10.25;;;;;;;;5102599;27;45535;-73
2023/06/05 21:59:40;;;;;;;;;11.33;10.33;;;;;;;;5102066;27;45266;-72
2023/06/05 22:02:06;;;;;;;;;13.67;12.00;;;;;;;;5092856;27;45351;-73
2023/06/05 22:04:32;;;;;;;;;8.00;8.00;;;;;;;;5097614;27;45701;-73
2023/06/05 22:06:57;;;;;;;;;12.50;10.25;;;;;;;;5100312;27;45241;-72
2023/06/05 22:09:22;;;;;;;;;11.50;10.25;;;;;;;;5101042;27;45498;-72
2023/06/05 22:11:48;;;;;;;;;13.00;13.00;;;;;;;;5101971;27;46748;-73
2023/06/05 22:14:16;;;;;;;;;12.00;10.00;;;;;;;;5101796;27;45208;-73
2023/06/05 22:16:42;;;;;;;;;10.50;9.75;;;;;;;;5102083;27;45273;-73
2023/06/05 22:19:09;;;;;;;;;7.25;7.25;;;;;;;;5098365;27;46156;-72
2023/06/05 22:21:34;;;;;;;;;13.25;11.50;;;;;;;;5101457;27;45479;-73
2023/06/05 22:24:00;;;;;;;;;10.50;9.50;;;;;;;;5099043;27;45323;-73
2023/06/05 22:26:28;;;;;;;;;10.50;10.25;;;;;;;;5101960;27;45309;-73
2023/06/05 22:28:59;;;;;;;;;9.50;8.75;;;;;;;;5099872;27;46237;-73
2023/06/05 22:31:25;;;;;;;;;13.25;10.75;;;;;;;;5101734;27;45445;-73
2023/06/05 22:33:51;;;;;;;;;9.50;8.75;;;;;;;;5100608;27;45358;-73
2023/06/05 22:36:16;;;;;;;;;9.50;8.25;;;;;;;;5101713;27;45428;-73
2023/06/05 22:38:42;;;;;;;;;11.75;10.50;;;;;;;;5100230;27;45433;-73
2023/06/05 22:41:08;;;;;;;;;11.75;10.00;;;;;;;;5101468;27;46297;-73
2023/06/05 22:43:33;;;;;;;;;14.25;10.50;;;;;;;;5101531;27;45297;-73
2023/06/05 22:45:59;;;;;;;;;8.75;7.75;;;;;;;;5102019;27;45223;-72
2023/06/05 22:48:24;;;;;;;;;11.00;10.00;;;;;;;;5101530;27;45198;-72
2023/06/05 22:50:53;;;;;;;;;11.33;10.33;;;;;;;;5099530;27;45274;-72
2023/06/05 22:53:20;;;;;;;;;10.50;9.25;;;;;;;;5100586;27;45573;-72
2023/06/05 22:55:45;;;;;;;;;10.00;10.00;;;;;;;;5101121;27;45411;-72
2023/06/05 22:58:11;;;;;;;;;12.00;10.67;;;;;;;;5091535;27;45392;-72
2023/06/05 23:00:36;;;;;;;;;8.00;7.00;;;;;;;;5101199;27;45395;-72
2023/06/05 23:03:01;;;;;;;;;12.00;10.00;;;;;;;;5097104;27;47091;-72
2023/06/05 23:05:26;;;;;;;;;12.25;10.75;;;;;;;;5105328;27;45448;-72
2023/06/05 23:07:52;;;;;;;;;9.33;8.33;;;;;;;;5110200;27;45583;-72
2023/06/05 23:10:17;;;;;;;;;12.67;11.00;;;;;;;;5099819;27;45302;-72
2023/06/05 23:12:42;;;;;;;;;13.00;10.00;;;;;;;;5099651;27;45803;-72
2023/06/05 23:15:08;;;;;;;;;12.67;10.67;;;;;;;;5101442;27;45254;-72
2023/06/05 23:17:33;;;;;;;;;6.25;6.25;;;;;;;;5099604;27;45503;-72
2023/06/05 23:19:58;;;;;;;;;10.50;9.00;;;;;;;;5099806;27;45426;-73
2023/06/05 23:22:24;;;;;;;;;11.00;8.00;;;;;;;;5099910;27;45254;-72
2023/06/05 23:24:50;;;;;;;;;10.50;8.00;;;;;;;;5100204;27;45202;-73
2023/06/05 23:27:15;;;;;;;;;12.00;9.67;;;;;;;;5100688;27;45204;-73
2023/06/05 23:29:40;;;;;;;;;11.25;10.75;;;;;;;;5105651;27;45327;-72
2023/06/05 23:32:06;;;;;;;;;10.25;10.00;;;;;;;;5108847;27;45304;-72
2023/06/05 23:34:31;;;;;;;;;10.75;9.25;;;;;;;;5100602;27;45265;-72
2023/06/05 23:36:58;;;;;;;;;12.00;9.33;;;;;;;;5099763;27;45435;-73
2023/06/05 23:39:23;;;;;;;;;12.00;10.00;;;;;;;;5098613;27;47700;-72
2023/06/05 23:41:49;;;;;;;;;10.00;10.00;;;;;;;;5100609;27;45457;-72
2023/06/05 23:44:15;;;;;;;;;10.00;9.25;;;;;;;;5100766;27;45346;-72
2023/06/05 23:46:40;;;;;;;;;11.00;10.00;;;;;;;;5100720;27;45402;-72
2023/06/05 23:49:06;;;;;;;;;14.00;12.00;;;;;;;;5101465;27;46151;-72
2023/06/05 23:51:33;;;;;;;;;8.75;8.25;;;;;;;;5102968;27;45486;-72
2023/06/05 23:53:58;;;;;;;;;13.00;11.00;;;;;;;;5099919;27;45331;-73
2023/06/05 23:56:23;;;;;;;;;8.25;8.25;;;;;;;;5100327;27;45550;-73
2023/06/05 23:58:49;;;;;;;;;13.67;11.00;;;;;;;;5100590;27;45281;-72
